createdAt,value
2022-11-01T00:01:07.618Z,101327.16
2022-11-01T00:03:34.320Z,101324.50
2022-11-01T00:06:00.928Z,101332.09
2022-11-01T00:08:27.430Z,101323.09
2022-11-01T00:11:01.836Z,101325.78
2022-11-01T00:13:28.848Z,101314.69
2022-11-01T00:15:55.288Z,101313.53
2022-11-01T00:18:21.750Z,101315.50
2022-11-01T00:20:48.210Z,101308.53
2022-11-01T00:23:15.963Z,101311.56
2022-11-01T00:25:42.461Z,101304.25
2022-11-01T00:28:08.927Z,101298.75
2022-11-01T00:30:39.282Z,101298.41
2022-11-01T00:33:06.070Z,101304.16
2022-11-01T00:35:33.154Z,101299.66
2022-11-01T00:38:00.347Z,101293.09
2022-11-01T00:40:27.092Z,101300.72
2022-11-01T00:42:53.585Z,101281.81
2022-11-01T00:45:20.063Z,101285.75
2022-11-01T00:47:47.424Z,101268.53
2022-11-01T00:50:14.154Z,101264.81
2022-11-01T00:52:40.812Z,101263.34
2022-11-01T00:55:07.552Z,101245.72
2022-11-01T00:57:34.018Z,101236.06
2022-11-01T01:00:00.599Z,101228.06
2022-11-01T01:02:27.208Z,101223.06
2022-11-01T01:04:54.737Z,101227.81
2022-11-01T01:07:21.273Z,101219.53
2022-11-01T01:09:47.734Z,101220.47
2022-11-01T01:12:14.190Z,101222.72
2022-11-01T01:14:40.635Z,101226.88
2022-11-01T01:17:07.857Z,101214.72
2022-11-01T01:19:34.392Z,101212.72
2022-11-01T01:22:01.124Z,101209.59
2022-11-01T01:24:27.828Z,101199.75
2022-11-01T01:26:54.603Z,101197.66
2022-11-01T01:29:21.070Z,101189.22
2022-11-01T01:31:47.526Z,101183.63
2022-11-01T01:34:13.978Z,101191.03
2022-11-01T01:36:40.462Z,101180.19
2022-11-01T01:39:06.943Z,101176.88
2022-11-01T01:41:51.957Z,101174.00
2022-11-01T01:44:46.178Z,101170.31
2022-11-01T01:47:14.374Z,101174.84
2022-11-01T01:49:42.652Z,101163.16
2022-11-01T01:52:09.523Z,101154.50
2022-11-01T01:54:36.111Z,101160.47
2022-11-01T01:57:02.558Z,101155.38
2022-11-01T01:59:29.029Z,101153.50
2022-11-01T02:01:55.670Z,101146.91
2022-11-01T02:04:26.370Z,101156.19
2022-11-01T02:06:52.825Z,101149.44
2022-11-01T02:09:19.599Z,101135.03
2022-11-01T02:11:46.144Z,101125.72
2022-11-01T02:14:12.610Z,101126.09
2022-11-01T02:16:46.400Z,101122.22
2022-11-01T02:19:31.695Z,101110.69
2022-11-01T02:22:23.220Z,101100.19
2022-11-01T02:25:11.514Z,101100.84
2022-11-01T02:27:43.898Z,101085.03
2022-11-01T02:30:23.926Z,101081.31
2022-11-01T02:33:07.625Z,101082.31
2022-11-01T02:35:33.969Z,101072.72
2022-11-01T02:38:18.495Z,101071.88
2022-11-01T02:41:03.757Z,101072.72
2022-11-01T02:43:33.356Z,101065.09
2022-11-01T02:46:21.777Z,101067.19
2022-11-01T02:48:48.378Z,101057.09
2022-11-01T02:51:17.871Z,101056.09
2022-11-01T02:53:44.446Z,101066.78
2022-11-01T02:56:11.250Z,101061.44
2022-11-01T02:58:37.706Z,101056.31
2022-11-01T03:01:15.098Z,101051.94
2022-11-01T03:03:43.502Z,101036.78
2022-11-01T03:06:20.886Z,101038.63
2022-11-01T03:08:59.249Z,101029.41
2022-11-01T03:11:39.552Z,101035.75
2022-11-01T03:14:14.825Z,101033.13
2022-11-01T03:17:01.563Z,101026.09
2022-11-01T03:19:43.975Z,101020.72
2022-11-01T03:22:14.024Z,101013.75
2022-11-01T03:24:43.517Z,101010.31
2022-11-01T03:27:35.493Z,101008.88
2022-11-01T03:30:05.645Z,101005.59
2022-11-01T03:32:36.589Z,100993.66
2022-11-01T03:35:03.797Z,100998.19
2022-11-01T03:37:30.774Z,100992.03
2022-11-01T03:39:58.317Z,101004.56
2022-11-01T03:42:25.012Z,101024.28
2022-11-01T03:44:57.404Z,101003.53
2022-11-01T03:47:23.960Z,101007.66
2022-11-01T03:50:13.590Z,100996.94
2022-11-01T03:52:40.054Z,101006.00
2022-11-01T03:55:19.385Z,100993.84
2022-11-01T03:57:47.610Z,100999.81
2022-11-01T04:00:19.216Z,100994.88
2022-11-01T04:02:45.668Z,100987.28
2022-11-01T04:05:12.446Z,100983.19
2022-11-01T04:07:39.431Z,100976.38
2022-11-01T04:10:06.815Z,100976.75
2022-11-01T04:12:33.318Z,100974.69
2022-11-01T04:15:18.309Z,100959.72
2022-11-01T04:18:03.472Z,100957.03
2022-11-01T04:20:36.277Z,100957.50
2022-11-01T04:23:05.397Z,100958.53
2022-11-01T04:25:33.056Z,100955.84
2022-11-01T04:27:59.800Z,100950.72
2022-11-01T04:30:28.096Z,100944.97
2022-11-01T04:32:55.116Z,100944.72
2022-11-01T04:35:22.355Z,100941.47
2022-11-01T04:37:48.856Z,100940.22
2022-11-01T04:40:15.479Z,100951.16
2022-11-01T04:42:41.969Z,100946.41
2022-11-01T04:45:08.910Z,100946.59
2022-11-01T04:47:35.362Z,100941.06
2022-11-01T04:50:01.818Z,100949.91
2022-11-01T04:52:28.301Z,100955.41
2022-11-01T04:54:54.768Z,100947.63
2022-11-01T04:57:24.289Z,100947.22
2022-11-01T04:59:51.510Z,100946.41
2022-11-01T05:02:19.079Z,100951.97
2022-11-01T05:04:45.655Z,100942.13
2022-11-01T05:07:12.393Z,100945.63
2022-11-01T05:09:38.841Z,100934.94
2022-11-01T05:12:05.304Z,100945.00
2022-11-01T05:14:31.752Z,100930.00
2022-11-01T05:16:58.560Z,100930.84
2022-11-01T05:19:25.274Z,100934.50
2022-11-01T05:21:52.146Z,100935.16
2022-11-01T05:24:19.754Z,100927.94
2022-11-01T05:26:46.630Z,100922.00
2022-11-01T05:29:24.453Z,100914.78
2022-11-01T05:31:57.836Z,100905.78
2022-11-01T05:34:24.288Z,100895.94
2022-11-01T05:36:50.753Z,100891.59
2022-11-01T05:39:17.290Z,100899.63
2022-11-01T05:41:43.965Z,100898.41
2022-11-01T05:44:10.453Z,100894.25
2022-11-01T05:46:37.106Z,100892.22
2022-11-01T05:49:04.652Z,100886.06
2022-11-01T05:51:31.176Z,100910.31
2022-11-01T05:53:57.737Z,100896.31
2022-11-01T05:56:24.262Z,100902.28
2022-11-01T05:58:50.829Z,100898.78
2022-11-01T06:01:17.961Z,100889.13
2022-11-01T06:03:49.416Z,100894.69
2022-11-01T06:06:15.910Z,100910.06
2022-11-01T06:08:42.452Z,100909.88
2022-11-01T06:11:12.235Z,100898.78
2022-11-01T06:13:38.814Z,100882.97
2022-11-01T06:16:06.013Z,100904.53
2022-11-01T06:18:34.775Z,100882.94
2022-11-01T06:21:01.297Z,100880.44
2022-11-01T06:23:27.831Z,100880.06
2022-11-01T06:26:04.695Z,100868.34
2022-11-01T06:28:33.977Z,100874.06
2022-11-01T06:31:03.351Z,100870.56
2022-11-01T06:33:30.643Z,100870.97
2022-11-01T06:35:59.699Z,100868.91
2022-11-01T06:38:26.313Z,100860.25
2022-11-01T06:40:52.838Z,100871.56
2022-11-01T06:43:19.375Z,100862.47
2022-11-01T06:45:45.872Z,100862.28
2022-11-01T06:48:12.446Z,100865.44
2022-11-01T06:50:38.935Z,100861.28
2022-11-01T06:53:05.463Z,100859.63
2022-11-01T06:55:34.757Z,100877.00
2022-11-01T06:58:04.744Z,100882.28
2022-11-01T07:00:32.038Z,100863.38
2022-11-01T07:03:04.314Z,100871.38
2022-11-01T07:05:36.121Z,100864.97
2022-11-01T07:08:14.534Z,100880.22
2022-11-01T07:10:43.092Z,100886.38
2022-11-01T07:13:14.541Z,100876.72
2022-11-01T07:15:41.275Z,100882.69
2022-11-01T07:18:12.303Z,100895.19
2022-11-01T07:20:41.918Z,100892.75
2022-11-01T07:23:17.637Z,100885.91
2022-11-01T07:25:44.281Z,100893.75
2022-11-01T07:28:12.017Z,100880.16
2022-11-01T07:30:39.274Z,100885.22
2022-11-01T07:33:06.118Z,100888.13
2022-11-01T07:35:33.758Z,100896.47
2022-11-01T07:38:02.823Z,100891.59
2022-11-01T07:40:34.283Z,100870.78
2022-11-01T07:43:02.270Z,100889.25
2022-11-01T07:45:30.390Z,100878.50
2022-11-01T07:48:34.446Z,100891.59
2022-11-01T07:51:07.039Z,100881.31
2022-11-01T07:53:33.717Z,100890.34
2022-11-01T07:56:01.654Z,100870.47
2022-11-01T07:58:28.373Z,100880.06
2022-11-01T08:00:54.995Z,100882.09
2022-11-01T08:03:21.582Z,100875.69
2022-11-01T08:05:49.449Z,100890.47
2022-11-01T08:08:17.001Z,100869.22
2022-11-01T08:10:48.534Z,100876.84
2022-11-01T08:13:20.543Z,100876.84
2022-11-01T08:15:48.085Z,100866.13
2022-11-01T08:18:15.262Z,100870.78
2022-11-01T08:20:44.556Z,100869.94
2022-11-01T08:23:11.640Z,100876.16
2022-11-01T08:25:38.605Z,100872.22
2022-11-01T08:28:07.642Z,100870.31
2022-11-01T08:30:36.345Z,100871.31
2022-11-01T08:33:04.274Z,100870.69
2022-11-01T08:35:31.538Z,100879.81
2022-11-01T08:37:59.168Z,100881.19
2022-11-01T08:40:26.404Z,100875.91
2022-11-01T08:42:52.940Z,100874.09
2022-11-01T08:45:19.598Z,100870.31
2022-11-01T08:47:46.130Z,100882.91
2022-11-01T08:50:18.179Z,100869.97
2022-11-01T08:52:46.947Z,100877.91
2022-11-01T08:55:13.423Z,100878.69
2022-11-01T08:57:39.981Z,100876.91
2022-11-01T09:00:07.191Z,100874.22
2022-11-01T09:02:34.072Z,100869.81
2022-11-01T09:05:05.020Z,100871.81
2022-11-01T09:07:31.737Z,100874.28
2022-11-01T09:09:59.395Z,100881.28
2022-11-01T09:12:29.025Z,100879.59
2022-11-01T09:14:55.614Z,100874.97
2022-11-01T09:17:22.209Z,100881.50
2022-11-01T09:19:48.765Z,100882.09
2022-11-01T09:22:15.287Z,100881.66
2022-11-01T09:24:45.194Z,100884.78
2022-11-01T09:27:14.321Z,100892.75
2022-11-01T09:29:40.857Z,100894.94
2022-11-01T09:32:07.560Z,100894.84
2022-11-01T09:34:34.492Z,100888.38
2022-11-01T09:37:03.088Z,100883.94
2022-11-01T09:39:29.627Z,100878.69
2022-11-01T09:42:04.227Z,100880.91
2022-11-01T09:44:35.853Z,100881.31
2022-11-01T09:47:09.317Z,100885.00
2022-11-01T09:49:38.589Z,100891.88
2022-11-01T09:52:06.173Z,100894.06
2022-11-01T09:54:44.040Z,100892.56
2022-11-01T09:57:37.830Z,100903.66
2022-11-01T10:00:13.325Z,100897.84
2022-11-01T10:03:34.146Z,100907.09
2022-11-01T10:06:17.897Z,100921.91
2022-11-01T10:08:58.921Z,100918.72
2022-11-01T10:11:36.386Z,100911.31
2022-11-01T10:14:42.502Z,100886.69
2022-11-01T10:17:19.968Z,100840.75
2022-11-01T10:19:48.762Z,100783.66
2022-11-01T10:22:35.542Z,100787.00
2022-11-01T10:25:10.746Z,100767.63
2022-11-01T10:27:52.197Z,100781.66
2022-11-01T10:30:19.772Z,100771.84
2022-11-01T10:32:58.241Z,100747.19
2022-11-01T10:35:29.849Z,100723.97
2022-11-01T10:38:35.158Z,100771.03
2022-11-01T10:41:50.748Z,100753.84
2022-11-01T10:44:27.836Z,100788.88
2022-11-01T10:46:54.836Z,100785.38
2022-11-01T10:49:35.070Z,100793.91
2022-11-01T10:52:08.566Z,100790.16
2022-11-01T10:54:37.282Z,100809.41
2022-11-01T10:57:08.295Z,100824.16
2022-11-01T10:59:41.379Z,100851.38
2022-11-01T11:02:43.719Z,100841.00
2022-11-01T11:05:14.540Z,100830.25
2022-11-01T11:07:41.821Z,100826.41
2022-11-01T11:10:24.073Z,100814.72
2022-11-01T11:12:54.089Z,100810.75
2022-11-01T11:15:28.650Z,100820.78
2022-11-01T11:17:57.940Z,100849.59
2022-11-01T11:20:26.481Z,100850.50
2022-11-01T11:22:53.281Z,100865.91
2022-11-01T11:25:23.442Z,100880.75
2022-11-01T11:27:54.919Z,100881.13
2022-11-01T11:30:30.275Z,100879.75
2022-11-01T11:32:58.627Z,100886.97
2022-11-01T11:35:27.553Z,100848.84
2022-11-01T11:38:00.120Z,100829.44
2022-11-01T11:40:39.115Z,100798.88
2022-11-01T11:43:33.212Z,100797.81
2022-11-01T11:46:12.373Z,100785.72
2022-11-01T11:48:53.170Z,100824.38
2022-11-01T11:51:21.523Z,100864.81
2022-11-01T11:54:06.830Z,100842.72
2022-11-01T11:56:36.148Z,100846.81
2022-11-01T11:59:08.507Z,100866.00
2022-11-01T12:01:35.431Z,100886.59
2022-11-01T12:04:12.402Z,100894.94
2022-11-01T12:06:46.649Z,100914.75
2022-11-01T12:09:36.852Z,100911.56
2022-11-01T12:12:27.248Z,100907.22
2022-11-01T12:14:56.271Z,100914.00
2022-11-01T12:17:26.793Z,100919.81
2022-11-01T12:20:15.494Z,100916.38
2022-11-01T12:23:02.896Z,100914.94
2022-11-01T12:25:29.596Z,100906.75
2022-11-01T12:28:01.875Z,100906.22
2022-11-01T12:30:31.397Z,100923.56
2022-11-01T12:32:59.775Z,100954.97
2022-11-01T12:35:37.704Z,100981.00
2022-11-01T12:38:35.082Z,101008.16
2022-11-01T12:41:13.723Z,101013.13
2022-11-01T12:44:13.978Z,101016.59
2022-11-01T12:46:55.303Z,101015.28
2022-11-01T12:49:36.993Z,101025.72
2022-11-01T12:52:14.142Z,101003.63
2022-11-01T12:54:46.949Z,101000.56
2022-11-01T12:57:16.025Z,100967.25
2022-11-01T12:59:43.881Z,100946.75
2022-11-01T13:02:29.907Z,100913.97
2022-11-01T13:05:06.445Z,100882.94
2022-11-01T13:07:35.723Z,100870.88
2022-11-01T13:10:20.662Z,100856.88
2022-11-01T13:12:59.543Z,100901.38
2022-11-01T13:16:16.724Z,100933.59
2022-11-01T13:19:30.024Z,100955.63
2022-11-01T13:22:29.827Z,100969.53
2022-11-01T13:25:18.378Z,100972.94
2022-11-01T13:28:02.328Z,100995.22
2022-11-01T13:30:28.629Z,101016.94
2022-11-01T13:33:33.952Z,101020.22
2022-11-01T13:36:17.945Z,101034.84
2022-11-01T13:39:02.047Z,101046.97
2022-11-01T13:41:33.943Z,101041.81
2022-11-01T13:44:11.614Z,101053.19
2022-11-01T13:46:41.705Z,101051.56
2022-11-01T13:49:11.028Z,101064.81
2022-11-01T13:51:41.557Z,101055.94
2022-11-01T13:54:27.688Z,101070.53
2022-11-01T13:57:13.992Z,101077.81
2022-11-01T13:59:44.380Z,101075.13
2022-11-01T14:02:23.380Z,101080.91
2022-11-01T14:05:03.643Z,101081.75
2022-11-01T14:07:45.191Z,101073.88
2022-11-01T14:10:31.440Z,101083.97
2022-11-01T14:13:06.864Z,101091.97
2022-11-01T14:15:54.962Z,101092.44
2022-11-01T14:18:21.626Z,101100.84
2022-11-01T14:20:50.471Z,101088.91
2022-11-01T14:23:27.671Z,101087.63
2022-11-01T14:26:19.019Z,101090.97
2022-11-01T14:28:55.293Z,101100.25
2022-11-01T14:31:25.628Z,101093.84
2022-11-01T14:33:56.107Z,101101.28
2022-11-01T14:36:28.415Z,101101.91
2022-11-01T14:39:15.346Z,101109.97
2022-11-01T14:41:46.027Z,101094.13
2022-11-01T14:44:30.605Z,101112.47
2022-11-01T14:47:05.312Z,101107.56
2022-11-01T14:49:43.230Z,101116.59
2022-11-01T14:52:24.624Z,101113.09
2022-11-01T14:55:04.423Z,101117.66
2022-11-01T14:57:33.268Z,101115.66
2022-11-01T15:00:11.340Z,101120.44
2022-11-01T15:02:38.145Z,101132.75
2022-11-01T15:05:04.847Z,101125.16
2022-11-01T15:07:38.038Z,101125.53
2022-11-01T15:10:13.731Z,101125.16
2022-11-01T15:12:47.965Z,101137.94
2022-11-01T15:15:23.846Z,101131.19
2022-11-01T15:18:02.732Z,101134.63
2022-11-01T15:20:34.886Z,101135.91
2022-11-01T15:23:07.603Z,101128.47
2022-11-01T15:25:34.100Z,101131.53
2022-11-01T15:28:00.651Z,101125.34
2022-11-01T15:30:30.235Z,101128.84
2022-11-01T15:33:16.582Z,101125.56
2022-11-01T15:35:43.113Z,101134.66
2022-11-01T15:38:20.605Z,101133.41
2022-11-01T15:40:48.486Z,101140.81
2022-11-01T15:43:18.153Z,101138.22
2022-11-01T15:46:07.641Z,101137.19
2022-11-01T15:48:35.667Z,101142.09
2022-11-01T15:51:07.292Z,101158.81
2022-11-01T15:53:35.462Z,101148.31
2022-11-01T15:56:15.773Z,101159.22
2022-11-01T15:59:02.451Z,101156.13
2022-11-01T16:01:29.050Z,101154.91
2022-11-01T16:04:00.537Z,101163.97
2022-11-01T16:06:44.788Z,101163.56
2022-11-01T16:09:28.212Z,101168.50
2022-11-01T16:11:59.235Z,101173.66
2022-11-01T16:14:33.563Z,101175.91
2022-11-01T16:17:06.350Z,101173.84
2022-11-01T16:19:37.200Z,101175.28
2022-11-01T16:22:05.332Z,101170.56
2022-11-01T16:24:32.325Z,101179.44
2022-11-01T16:27:03.529Z,101184.38
2022-11-01T16:29:48.383Z,101192.00
2022-11-01T16:32:27.194Z,101189.34
2022-11-01T16:34:55.838Z,101196.13
2022-11-01T16:37:27.583Z,101189.72
2022-11-01T16:39:54.384Z,101189.53
2022-11-01T16:42:21.853Z,101173.06
2022-11-01T16:44:55.711Z,101176.56
2022-11-01T16:47:22.748Z,101178.06
2022-11-01T16:49:51.325Z,101196.16
2022-11-01T16:52:18.387Z,101197.78
2022-11-01T16:54:48.919Z,101193.91
2022-11-01T16:57:27.184Z,101204.59
2022-11-01T16:59:57.288Z,101208.91
2022-11-01T17:02:29.627Z,101205.44
2022-11-01T17:05:16.854Z,101204.00
2022-11-01T17:07:43.313Z,101202.75
2022-11-01T17:10:18.162Z,101195.97
2022-11-01T17:12:45.112Z,101199.06
2022-11-01T17:15:12.986Z,101197.41
2022-11-01T17:17:40.698Z,101195.53
2022-11-01T17:20:14.453Z,101201.50
2022-11-01T17:22:41.710Z,101191.66
2022-11-01T17:25:14.804Z,101191.03
2022-11-01T17:27:41.254Z,101195.34
2022-11-01T17:30:08.072Z,101204.19
2022-11-01T17:32:34.516Z,101201.91
2022-11-01T17:35:00.984Z,101199.22
2022-11-01T17:37:31.396Z,101191.00
2022-11-01T17:39:59.571Z,101191.63
2022-11-01T17:42:26.040Z,101203.56
2022-11-01T17:44:52.495Z,101205.81
2022-11-01T17:47:19.109Z,101195.75
2022-11-01T17:49:45.592Z,101186.28
2022-11-01T17:52:12.024Z,101187.28
2022-11-01T17:54:38.485Z,101184.22
2022-11-01T17:57:04.929Z,101193.25
2022-11-01T17:59:31.411Z,101180.06
2022-11-01T18:01:58.113Z,101179.50
2022-11-01T18:04:24.673Z,101178.88
2022-11-01T18:06:51.947Z,101179.28
2022-11-01T18:09:24.084Z,101184.41
2022-11-01T18:11:58.564Z,101174.72
2022-11-01T18:14:49.837Z,101160.94
2022-11-01T18:17:18.889Z,101167.50
2022-11-01T18:19:53.985Z,101168.13
2022-11-01T18:22:35.509Z,101157.03
2022-11-01T18:25:11.506Z,101149.81
2022-11-01T18:27:39.032Z,101145.47
2022-11-01T18:30:14.090Z,101163.63
2022-11-01T18:33:02.050Z,101156.59
2022-11-01T18:35:32.992Z,101155.78
2022-11-01T18:38:12.714Z,101155.16
2022-11-01T18:40:55.473Z,101157.84
2022-11-01T18:43:21.963Z,101156.59
2022-11-01T18:46:11.539Z,101136.63
2022-11-01T18:48:35.069Z,101143.66
2022-11-01T18:51:05.043Z,101143.84
2022-11-01T18:53:33.222Z,101137.69
2022-11-01T18:56:22.448Z,101135.84
2022-11-01T18:58:50.170Z,101137.28
2022-11-01T19:01:21.856Z,101148.84
2022-11-01T19:03:58.280Z,101147.59
2022-11-01T19:06:28.803Z,101155.00
2022-11-01T19:08:57.088Z,101147.19
2022-11-01T19:11:26.742Z,101154.19
2022-11-01T19:13:53.700Z,101151.31
2022-11-01T19:16:20.600Z,101167.97
2022-11-01T19:18:49.581Z,101155.00
2022-11-01T19:21:18.516Z,101146.56
2022-11-01T19:23:54.457Z,101146.56
2022-11-01T19:26:23.386Z,101146.75
2022-11-01T19:28:52.372Z,101153.34
2022-11-01T19:31:19.125Z,101151.09
2022-11-01T19:33:46.737Z,101144.50
2022-11-01T19:36:19.332Z,101149.66
2022-11-01T19:38:46.587Z,101156.88
2022-11-01T19:41:15.424Z,101156.03
2022-11-01T19:43:41.875Z,101152.09
2022-11-01T19:46:11.539Z,101143.50
2022-11-01T19:48:38.100Z,101143.69
2022-11-01T19:51:13.272Z,101144.50
2022-11-01T19:53:42.435Z,101151.72
2022-11-01T19:56:29.825Z,101145.72
2022-11-01T19:59:00.479Z,101148.81
2022-11-01T20:01:53.511Z,101148.84
2022-11-01T20:04:27.889Z,101152.09
2022-11-01T20:06:57.560Z,101147.19
2022-11-01T20:09:26.636Z,101152.91
2022-11-01T20:11:53.619Z,101148.38
2022-11-01T20:14:20.782Z,101153.34
2022-11-01T20:16:47.255Z,101140.97
2022-11-01T20:19:17.412Z,101126.59
2022-11-01T20:21:44.887Z,101144.28
2022-11-01T20:24:11.433Z,101147.38
2022-11-01T20:26:38.021Z,101129.44
2022-11-01T20:29:04.524Z,101145.09
2022-11-01T20:31:31.277Z,101135.63
2022-11-01T20:33:58.198Z,101140.16
2022-11-01T20:36:24.661Z,101133.94
2022-11-01T20:38:51.140Z,101126.16
2022-11-01T20:41:19.000Z,101125.72
2022-11-01T20:43:45.471Z,101115.00
2022-11-01T20:46:12.005Z,101119.13
2022-11-01T20:48:38.456Z,101119.56
2022-11-01T20:51:14.111Z,101113.81
2022-11-01T20:53:41.204Z,101118.13
2022-11-01T20:56:08.428Z,101115.25
2022-11-01T20:58:40.124Z,101116.06
2022-11-01T21:01:14.562Z,101117.56
2022-11-01T21:03:41.132Z,101122.28
2022-11-01T21:06:16.647Z,101122.09
2022-11-01T21:08:46.961Z,101119.41
2022-11-01T21:11:43.457Z,101130.31
2022-11-01T21:14:19.712Z,101124.97
2022-11-01T21:16:48.169Z,101130.31
2022-11-01T21:19:22.414Z,101133.19
2022-11-01T21:21:55.548Z,101128.66
2022-11-01T21:24:30.624Z,101139.97
2022-11-01T21:27:12.223Z,101125.31
2022-11-01T21:29:48.977Z,101138.03
2022-11-01T21:32:30.528Z,101139.53
2022-11-01T21:34:58.259Z,101132.13
2022-11-01T21:37:28.310Z,101143.22
2022-11-01T21:40:01.544Z,101142.44
2022-11-01T21:42:32.966Z,101141.19
2022-11-01T21:45:00.089Z,101131.91
2022-11-01T21:47:30.613Z,101129.81
2022-11-01T21:49:57.172Z,101131.91
2022-11-01T21:52:24.626Z,101131.28
2022-11-01T21:54:52.664Z,101123.63
2022-11-01T21:57:19.449Z,101123.44
2022-11-01T21:59:46.090Z,101124.94
2022-11-01T22:02:14.014Z,101112.97
2022-11-01T22:04:40.756Z,101124.94
2022-11-01T22:07:08.586Z,101103.69
2022-11-01T22:09:35.368Z,101115.63
2022-11-01T22:12:01.870Z,101111.34
2022-11-01T22:14:28.391Z,101095.53
2022-11-01T22:16:54.982Z,101104.16
2022-11-01T22:19:21.486Z,101073.13
2022-11-01T22:21:48.026Z,101085.88
2022-11-01T22:24:14.604Z,101083.19
2022-11-01T22:26:41.051Z,101082.16
2022-11-01T22:29:07.511Z,101074.56
2022-11-01T22:31:34.059Z,101078.06
2022-11-01T22:34:01.327Z,101060.16
2022-11-01T22:36:30.003Z,101065.31
2022-11-01T22:38:59.616Z,101066.13
2022-11-01T22:41:33.256Z,101060.38
2022-11-01T22:44:05.916Z,101048.03
2022-11-01T22:46:46.513Z,101057.09
2022-11-01T22:49:20.442Z,101051.13
2022-11-01T22:51:50.484Z,101045.16
2022-11-01T22:54:27.652Z,101033.84
2022-11-01T22:57:21.864Z,101019.66
2022-11-01T22:59:51.240Z,101035.09
2022-11-01T23:02:30.927Z,101029.31
2022-11-01T23:05:06.782Z,101026.44
2022-11-01T23:07:35.882Z,101017.22
2022-11-01T23:10:05.446Z,101027.25
2022-11-01T23:12:52.445Z,101024.97
2022-11-01T23:15:23.362Z,101023.53
2022-11-01T23:17:49.816Z,101026.63
2022-11-01T23:20:17.253Z,101032.19
2022-11-01T23:22:43.707Z,101032.19
2022-11-01T23:25:10.147Z,101028.69
2022-11-01T23:27:36.712Z,101040.19
2022-11-01T23:30:03.331Z,101058.75
2022-11-01T23:32:30.575Z,101061.19
2022-11-01T23:35:11.648Z,101056.25
2022-11-01T23:37:38.090Z,101064.69
2022-11-01T23:40:13.405Z,101064.28
2022-11-01T23:42:39.869Z,101051.09
2022-11-01T23:45:20.493Z,101052.56
2022-11-01T23:47:46.946Z,101062.63
2022-11-01T23:50:20.023Z,101055.84
2022-11-01T23:52:48.494Z,101058.13
2022-11-01T23:55:24.285Z,101057.50
2022-11-01T23:57:55.732Z,101069.44
